sensor_id;sensor_type;location;lat;lon;timestamp;P1;durP1;ratioP1;P2;durP2;ratioP2
83372;SDS011;73281;50.882;5.984;2023-12-14T00:01:13;8.03;;;1.70;;
83372;SDS011;73281;50.882;5.984;2023-12-14T00:03:38;3.60;;;1.70;;
83372;SDS011;73281;50.882;5.984;2023-12-14T00:06:06;4.93;;;2.43;;
83372;SDS011;73281;50.882;5.984;2023-12-14T00:08:32;6.70;;;1.35;;
83372;SDS011;73281;50.882;5.984;2023-12-14T00:11:02;9.73;;;1.53;;
83372;SDS011;73281;50.882;5.984;2023-12-14T00:13:29;6.93;;;1.58;;
83372;SDS011;73281;50.882;5.984;2023-12-14T00:15:54;7.90;;;1.43;;
83372;SDS011;73281;50.882;5.984;2023-12-14T00:18:19;3.33;;;1.30;;
83372;SDS011;73281;50.882;5.984;2023-12-14T00:20:44;4.32;;;1.20;;
83372;SDS011;73281;50.882;5.984;2023-12-14T00:23:10;3.50;;;1.40;;
83372;SDS011;73281;50.882;5.984;2023-12-14T00:25:35;4.83;;;1.33;;
83372;SDS011;73281;50.882;5.984;2023-12-14T00:28:00;4.80;;;1.63;;
83372;SDS011;73281;50.882;5.984;2023-12-14T00:30:26;3.93;;;1.07;;
83372;SDS011;73281;50.882;5.984;2023-12-14T00:32:51;3.20;;;1.47;;
83372;SDS011;73281;50.882;5.984;2023-12-14T00:35:16;4.83;;;1.97;;
83372;SDS011;73281;50.882;5.984;2023-12-14T00:37:42;4.60;;;1.60;;
83372;SDS011;73281;50.882;5.984;2023-12-14T00:40:07;4.00;;;1.20;;
83372;SDS011;73281;50.882;5.984;2023-12-14T00:42:33;6.27;;;1.30;;
83372;SDS011;73281;50.882;5.984;2023-12-14T00:44:58;3.73;;;1.40;;
83372;SDS011;73281;50.882;5.984;2023-12-14T00:47:24;4.37;;;1.60;;
83372;SDS011;73281;50.882;5.984;2023-12-14T00:49:49;7.40;;;1.60;;
83372;SDS011;73281;50.882;5.984;2023-12-14T00:52:14;4.53;;;1.40;;
83372;SDS011;73281;50.882;5.984;2023-12-14T00:54:40;3.10;;;1.50;;
83372;SDS011;73281;50.882;5.984;2023-12-14T00:57:05;3.17;;;1.53;;
83372;SDS011;73281;50.882;5.984;2023-12-14T00:59:30;6.07;;;1.33;;
83372;SDS011;73281;50.882;5.984;2023-12-14T01:01:56;2.73;;;1.10;;
83372;SDS011;73281;50.882;5.984;2023-12-14T01:04:21;3.77;;;1.20;;
83372;SDS011;73281;50.882;5.984;2023-12-14T01:06:47;4.60;;;1.60;;
83372;SDS011;73281;50.882;5.984;2023-12-14T01:09:12;3.97;;;1.33;;
83372;SDS011;73281;50.882;5.984;2023-12-14T01:11:37;4.63;;;1.33;;
83372;SDS011;73281;50.882;5.984;2023-12-14T01:14:03;3.57;;;1.37;;
83372;SDS011;73281;50.882;5.984;2023-12-14T01:16:29;4.40;;;1.40;;
83372;SDS011;73281;50.882;5.984;2023-12-14T01:18:54;3.97;;;1.13;;
83372;SDS011;73281;50.882;5.984;2023-12-14T01:21:19;4.27;;;1.20;;
83372;SDS011;73281;50.882;5.984;2023-12-14T01:23:45;4.53;;;1.40;;
83372;SDS011;73281;50.882;5.984;2023-12-14T01:26:10;5.20;;;1.27;;
83372;SDS011;73281;50.882;5.984;2023-12-14T01:28:35;2.67;;;1.17;;
83372;SDS011;73281;50.882;5.984;2023-12-14T01:31:01;4.23;;;1.20;;
83372;SDS011;73281;50.882;5.984;2023-12-14T01:33:26;5.30;;;1.40;;
83372;SDS011;73281;50.882;5.984;2023-12-14T01:35:51;3.60;;;1.53;;
83372;SDS011;73281;50.882;5.984;2023-12-14T01:38:17;7.03;;;1.50;;
83372;SDS011;73281;50.882;5.984;2023-12-14T01:40:42;4.77;;;1.40;;
83372;SDS011;73281;50.882;5.984;2023-12-14T01:43:08;4.93;;;1.10;;
83372;SDS011;73281;50.882;5.984;2023-12-14T01:45:35;3.80;;;1.42;;
83372;SDS011;73281;50.882;5.984;2023-12-14T01:48:01;2.92;;;1.15;;
83372;SDS011;73281;50.882;5.984;2023-12-14T01:50:27;3.23;;;1.23;;
83372;SDS011;73281;50.882;5.984;2023-12-14T01:52:52;3.83;;;1.30;;
83372;SDS011;73281;50.882;5.984;2023-12-14T01:55:17;2.73;;;1.37;;
83372;SDS011;73281;50.882;5.984;2023-12-14T01:57:43;4.07;;;1.37;;
83372;SDS011;73281;50.882;5.984;2023-12-14T02:00:09;3.25;;;1.42;;
83372;SDS011;73281;50.882;5.984;2023-12-14T02:02:47;2.50;;;1.40;;
83372;SDS011;73281;50.882;5.984;2023-12-14T02:05:13;4.05;;;1.55;;
83372;SDS011;73281;50.882;5.984;2023-12-14T02:07:38;3.47;;;1.60;;
83372;SDS011;73281;50.882;5.984;2023-12-14T02:10:03;3.43;;;1.53;;
83372;SDS011;73281;50.882;5.984;2023-12-14T02:12:29;3.80;;;1.58;;
83372;SDS011;73281;50.882;5.984;2023-12-14T02:14:56;2.43;;;1.37;;
83372;SDS011;73281;50.882;5.984;2023-12-14T02:17:21;2.65;;;1.20;;
83372;SDS011;73281;50.882;5.984;2023-12-14T02:19:46;3.50;;;1.43;;
83372;SDS011;73281;50.882;5.984;2023-12-14T02:22:12;4.77;;;1.70;;
83372;SDS011;73281;50.882;5.984;2023-12-14T02:24:37;3.30;;;1.60;;
83372;SDS011;73281;50.882;5.984;2023-12-14T02:27:03;2.33;;;1.27;;
83372;SDS011;73281;50.882;5.984;2023-12-14T02:29:28;4.17;;;1.70;;
83372;SDS011;73281;50.882;5.984;2023-12-14T02:31:53;4.10;;;1.33;;
83372;SDS011;73281;50.882;5.984;2023-12-14T02:34:19;3.50;;;1.50;;
83372;SDS011;73281;50.882;5.984;2023-12-14T02:36:45;2.90;;;1.42;;
83372;SDS011;73281;50.882;5.984;2023-12-14T02:39:11;3.78;;;1.50;;
83372;SDS011;73281;50.882;5.984;2023-12-14T02:41:36;2.40;;;1.37;;
83372;SDS011;73281;50.882;5.984;2023-12-14T02:44:01;4.43;;;1.33;;
83372;SDS011;73281;50.882;5.984;2023-12-14T02:46:27;3.30;;;1.63;;
83372;SDS011;73281;50.882;5.984;2023-12-14T02:48:52;2.83;;;1.60;;
83372;SDS011;73281;50.882;5.984;2023-12-14T02:51:17;5.60;;;1.47;;
83372;SDS011;73281;50.882;5.984;2023-12-14T02:53:43;2.85;;;1.40;;
83372;SDS011;73281;50.882;5.984;2023-12-14T02:56:09;2.60;;;1.47;;
83372;SDS011;73281;50.882;5.984;2023-12-14T02:58:35;3.88;;;1.63;;
83372;SDS011;73281;50.882;5.984;2023-12-14T03:01:00;3.73;;;1.60;;
83372;SDS011;73281;50.882;5.984;2023-12-14T03:03:26;5.73;;;2.00;;
83372;SDS011;73281;50.882;5.984;2023-12-14T03:05:51;2.60;;;1.43;;
83372;SDS011;73281;50.882;5.984;2023-12-14T03:08:16;3.13;;;1.87;;
83372;SDS011;73281;50.882;5.984;2023-12-14T03:10:42;6.10;;;1.53;;
83372;SDS011;73281;50.882;5.984;2023-12-14T03:13:07;3.37;;;1.50;;
83372;SDS011;73281;50.882;5.984;2023-12-14T03:15:32;5.18;;;1.90;;
83372;SDS011;73281;50.882;5.984;2023-12-14T03:17:58;2.60;;;1.40;;
83372;SDS011;73281;50.882;5.984;2023-12-14T03:20:24;3.28;;;1.77;;
83372;SDS011;73281;50.882;5.984;2023-12-14T03:22:49;2.97;;;1.30;;
83372;SDS011;73281;50.882;5.984;2023-12-14T03:25:14;3.73;;;1.43;;
83372;SDS011;73281;50.882;5.984;2023-12-14T03:27:40;2.30;;;1.30;;
83372;SDS011;73281;50.882;5.984;2023-12-14T03:30:05;4.53;;;1.60;;
83372;SDS011;73281;50.882;5.984;2023-12-14T03:32:34;2.55;;;1.60;;
83372;SDS011;73281;50.882;5.984;2023-12-14T03:35:00;2.73;;;1.30;;
83372;SDS011;73281;50.882;5.984;2023-12-14T03:37:25;3.30;;;1.40;;
83372;SDS011;73281;50.882;5.984;2023-12-14T03:39:50;2.30;;;1.40;;
83372;SDS011;73281;50.882;5.984;2023-12-14T03:42:16;2.93;;;1.63;;
83372;SDS011;73281;50.882;5.984;2023-12-14T03:44:41;2.40;;;1.23;;
83372;SDS011;73281;50.882;5.984;2023-12-14T03:47:07;2.00;;;1.27;;
83372;SDS011;73281;50.882;5.984;2023-12-14T03:49:36;2.78;;;1.13;;
83372;SDS011;73281;50.882;5.984;2023-12-14T03:52:03;2.57;;;1.50;;
83372;SDS011;73281;50.882;5.984;2023-12-14T03:54:29;2.60;;;1.25;;
83372;SDS011;73281;50.882;5.984;2023-12-14T03:56:54;3.60;;;1.23;;
83372;SDS011;73281;50.882;5.984;2023-12-14T03:59:19;3.37;;;1.20;;
83372;SDS011;73281;50.882;5.984;2023-12-14T04:01:45;2.97;;;1.33;;
83372;SDS011;73281;50.882;5.984;2023-12-14T04:04:10;3.65;;;1.33;;
83372;SDS011;73281;50.882;5.984;2023-12-14T04:06:36;1.77;;;0.93;;
83372;SDS011;73281;50.882;5.984;2023-12-14T04:09:01;2.90;;;1.30;;
83372;SDS011;73281;50.882;5.984;2023-12-14T04:11:26;2.63;;;1.20;;
83372;SDS011;73281;50.882;5.984;2023-12-14T04:13:52;3.35;;;1.35;;
83372;SDS011;73281;50.882;5.984;2023-12-14T04:16:21;2.87;;;1.23;;
83372;SDS011;73281;50.882;5.984;2023-12-14T04:18:47;3.92;;;1.50;;
83372;SDS011;73281;50.882;5.984;2023-12-14T04:21:13;1.83;;;0.90;;
83372;SDS011;73281;50.882;5.984;2023-12-14T04:23:38;4.43;;;1.13;;
83372;SDS011;73281;50.882;5.984;2023-12-14T04:26:04;2.00;;;1.00;;
83372;SDS011;73281;50.882;5.984;2023-12-14T04:28:29;4.43;;;1.00;;
83372;SDS011;73281;50.882;5.984;2023-12-14T04:30:54;2.60;;;0.90;;
83372;SDS011;73281;50.882;5.984;2023-12-14T04:33:20;4.22;;;1.20;;
83372;SDS011;73281;50.882;5.984;2023-12-14T04:35:45;2.30;;;1.00;;
83372;SDS011;73281;50.882;5.984;2023-12-14T04:38:10;3.53;;;1.30;;
83372;SDS011;73281;50.882;5.984;2023-12-14T04:40:36;4.03;;;1.47;;
83372;SDS011;73281;50.882;5.984;2023-12-14T04:43:01;4.27;;;1.27;;
83372;SDS011;73281;50.882;5.984;2023-12-14T04:45:27;2.17;;;0.90;;
83372;SDS011;73281;50.882;5.984;2023-12-14T04:47:52;3.80;;;1.30;;
83372;SDS011;73281;50.882;5.984;2023-12-14T04:50:18;2.08;;;0.90;;
83372;SDS011;73281;50.882;5.984;2023-12-14T04:52:43;4.10;;;0.87;;
83372;SDS011;73281;50.882;5.984;2023-12-14T04:55:08;2.50;;;1.00;;
83372;SDS011;73281;50.882;5.984;2023-12-14T04:57:34;2.03;;;0.80;;
83372;SDS011;73281;50.882;5.984;2023-12-14T05:00:01;1.60;;;0.75;;
83372;SDS011;73281;50.882;5.984;2023-12-14T05:02:27;2.47;;;0.98;;
83372;SDS011;73281;50.882;5.984;2023-12-14T05:04:52;1.20;;;0.80;;
83372;SDS011;73281;50.882;5.984;2023-12-14T05:07:18;3.43;;;0.60;;
83372;SDS011;73281;50.882;5.984;2023-12-14T05:09:43;1.40;;;0.77;;
83372;SDS011;73281;50.882;5.984;2023-12-14T05:12:09;2.80;;;0.98;;
83372;SDS011;73281;50.882;5.984;2023-12-14T05:14:34;1.73;;;1.00;;
83372;SDS011;73281;50.882;5.984;2023-12-14T05:16:59;1.50;;;0.73;;
83372;SDS011;73281;50.882;5.984;2023-12-14T05:19:25;2.80;;;0.87;;
83372;SDS011;73281;50.882;5.984;2023-12-14T05:21:50;1.80;;;0.80;;
83372;SDS011;73281;50.882;5.984;2023-12-14T05:24:15;1.53;;;0.73;;
83372;SDS011;73281;50.882;5.984;2023-12-14T05:26:41;2.50;;;0.90;;
83372;SDS011;73281;50.882;5.984;2023-12-14T05:29:06;2.00;;;0.80;;
83372;SDS011;73281;50.882;5.984;2023-12-14T05:31:31;2.10;;;0.80;;
83372;SDS011;73281;50.882;5.984;2023-12-14T05:33:57;1.43;;;0.70;;
83372;SDS011;73281;50.882;5.984;2023-12-14T05:36:23;1.80;;;1.00;;
83372;SDS011;73281;50.882;5.984;2023-12-14T05:38:48;2.60;;;0.90;;
83372;SDS011;73281;50.882;5.984;2023-12-14T05:41:14;1.33;;;0.83;;
83372;SDS011;73281;50.882;5.984;2023-12-14T05:43:39;2.43;;;1.10;;
83372;SDS011;73281;50.882;5.984;2023-12-14T05:46:04;3.05;;;1.13;;
83372;SDS011;73281;50.882;5.984;2023-12-14T05:48:30;1.40;;;0.97;;
83372;SDS011;73281;50.882;5.984;2023-12-14T05:50:56;1.80;;;0.80;;
83372;SDS011;73281;50.882;5.984;2023-12-14T05:53:22;2.05;;;0.93;;
83372;SDS011;73281;50.882;5.984;2023-12-14T05:55:47;2.40;;;0.77;;
83372;SDS011;73281;50.882;5.984;2023-12-14T05:58:12;1.90;;;1.00;;
83372;SDS011;73281;50.882;5.984;2023-12-14T06:00:38;1.83;;;0.70;;
83372;SDS011;73281;50.882;5.984;2023-12-14T06:03:04;2.20;;;0.85;;
83372;SDS011;73281;50.882;5.984;2023-12-14T06:05:30;1.00;;;0.67;;
83372;SDS011;73281;50.882;5.984;2023-12-14T06:07:56;2.10;;;0.83;;
83372;SDS011;73281;50.882;5.984;2023-12-14T06:10:21;1.27;;;0.70;;
83372;SDS011;73281;50.882;5.984;2023-12-14T06:12:46;2.77;;;0.83;;
83372;SDS011;73281;50.882;5.984;2023-12-14T06:15:12;3.07;;;0.93;;
83372;SDS011;73281;50.882;5.984;2023-12-14T06:17:38;2.40;;;1.05;;
83372;SDS011;73281;50.882;5.984;2023-12-14T06:20:05;1.52;;;0.85;;
83372;SDS011;73281;50.882;5.984;2023-12-14T06:22:33;1.70;;;0.80;;
83372;SDS011;73281;50.882;5.984;2023-12-14T06:25:00;3.65;;;1.13;;
83372;SDS011;73281;50.882;5.984;2023-12-14T06:27:26;2.47;;;0.87;;
83372;SDS011;73281;50.882;5.984;2023-12-14T06:29:51;1.52;;;0.73;;
83372;SDS011;73281;50.882;5.984;2023-12-14T06:32:17;1.50;;;0.80;;
83372;SDS011;73281;50.882;5.984;2023-12-14T06:34:42;1.73;;;1.27;;
83372;SDS011;73281;50.882;5.984;2023-12-14T06:37:08;2.30;;;0.80;;
83372;SDS011;73281;50.882;5.984;2023-12-14T06:39:34;2.50;;;1.30;;
83372;SDS011;73281;50.882;5.984;2023-12-14T06:42:00;1.20;;;0.60;;
83372;SDS011;73281;50.882;5.984;2023-12-14T06:44:25;3.67;;;0.70;;
83372;SDS011;73281;50.882;5.984;2023-12-14T06:46:52;1.53;;;0.70;;
83372;SDS011;73281;50.882;5.984;2023-12-14T06:49:18;2.78;;;1.00;;
83372;SDS011;73281;50.882;5.984;2023-12-14T06:51:43;4.23;;;0.53;;
83372;SDS011;73281;50.882;5.984;2023-12-14T06:54:09;7.20;;;0.85;;
83372;SDS011;73281;50.882;5.984;2023-12-14T06:56:36;3.93;;;0.80;;
83372;SDS011;73281;50.882;5.984;2023-12-14T06:59:01;13.20;;;1.05;;
83372;SDS011;73281;50.882;5.984;2023-12-14T07:01:27;9.73;;;1.10;;
83372;SDS011;73281;50.882;5.984;2023-12-14T07:03:52;5.97;;;1.00;;
83372;SDS011;73281;50.882;5.984;2023-12-14T07:06:18;6.03;;;0.70;;
83372;SDS011;73281;50.882;5.984;2023-12-14T07:08:43;9.88;;;2.17;;
83372;SDS011;73281;50.882;5.984;2023-12-14T07:11:10;3.87;;;1.00;;
83372;SDS011;73281;50.882;5.984;2023-12-14T07:13:36;2.13;;;0.68;;
83372;SDS011;73281;50.882;5.984;2023-12-14T07:16:06;5.43;;;1.27;;
83372;SDS011;73281;50.882;5.984;2023-12-14T07:18:33;5.18;;;1.10;;
83372;SDS011;73281;50.882;5.984;2023-12-14T07:21:00;5.60;;;0.90;;
83372;SDS011;73281;50.882;5.984;2023-12-14T07:23:25;4.90;;;0.88;;
83372;SDS011;73281;50.882;5.984;2023-12-14T07:25:52;4.43;;;0.80;;
83372;SDS011;73281;50.882;5.984;2023-12-14T07:28:17;2.77;;;0.77;;
83372;SDS011;73281;50.882;5.984;2023-12-14T07:30:42;6.00;;;1.00;;
83372;SDS011;73281;50.882;5.984;2023-12-14T07:33:08;7.13;;;1.07;;
83372;SDS011;73281;50.882;5.984;2023-12-14T07:35:33;1.98;;;0.68;;
83372;SDS011;73281;50.882;5.984;2023-12-14T07:37:59;5.50;;;0.77;;
83372;SDS011;73281;50.882;5.984;2023-12-14T07:40:24;5.33;;;1.00;;
83372;SDS011;73281;50.882;5.984;2023-12-14T07:42:49;5.90;;;0.93;;
83372;SDS011;73281;50.882;5.984;2023-12-14T07:45:15;2.30;;;0.80;;
83372;SDS011;73281;50.882;5.984;2023-12-14T07:47:40;3.63;;;0.90;;
83372;SDS011;73281;50.882;5.984;2023-12-14T07:50:07;4.32;;;0.85;;
83372;SDS011;73281;50.882;5.984;2023-12-14T07:52:33;3.63;;;0.70;;
83372;SDS011;73281;50.882;5.984;2023-12-14T07:55:00;4.38;;;0.70;;
83372;SDS011;73281;50.882;5.984;2023-12-14T07:57:25;2.47;;;0.95;;
83372;SDS011;73281;50.882;5.984;2023-12-14T07:59:50;2.53;;;0.70;;
83372;SDS011;73281;50.882;5.984;2023-12-14T08:02:16;5.00;;;0.90;;
83372;SDS011;73281;50.882;5.984;2023-12-14T08:04:41;3.10;;;0.70;;
83372;SDS011;73281;50.882;5.984;2023-12-14T08:07:06;3.87;;;0.77;;
83372;SDS011;73281;50.882;5.984;2023-12-14T08:09:32;2.57;;;0.63;;
83372;SDS011;73281;50.882;5.984;2023-12-14T08:11:58;2.85;;;0.60;;
83372;SDS011;73281;50.882;5.984;2023-12-14T08:14:23;1.87;;;0.60;;
83372;SDS011;73281;50.882;5.984;2023-12-14T08:16:48;1.95;;;0.60;;
83372;SDS011;73281;50.882;5.984;2023-12-14T08:19:14;2.80;;;0.97;;
83372;SDS011;73281;50.882;5.984;2023-12-14T08:21:39;1.73;;;0.80;;
83372;SDS011;73281;50.882;5.984;2023-12-14T08:24:04;3.10;;;0.70;;
83372;SDS011;73281;50.882;5.984;2023-12-14T08:26:30;2.40;;;0.83;;
83372;SDS011;73281;50.882;5.984;2023-12-14T08:28:55;2.47;;;0.87;;
83372;SDS011;73281;50.882;5.984;2023-12-14T08:31:20;2.00;;;0.97;;
83372;SDS011;73281;50.882;5.984;2023-12-14T08:33:46;2.97;;;1.05;;
83372;SDS011;73281;50.882;5.984;2023-12-14T08:36:14;6.93;;;0.97;;
83372;SDS011;73281;50.882;5.984;2023-12-14T08:38:40;5.65;;;1.05;;
83372;SDS011;73281;50.882;5.984;2023-12-14T08:41:05;1.83;;;0.97;;
83372;SDS011;73281;50.882;5.984;2023-12-14T08:43:31;4.20;;;1.00;;
83372;SDS011;73281;50.882;5.984;2023-12-14T08:45:56;3.05;;;0.93;;
83372;SDS011;73281;50.882;5.984;2023-12-14T08:48:22;4.30;;;1.40;;
83372;SDS011;73281;50.882;5.984;2023-12-14T08:50:47;3.03;;;1.20;;
83372;SDS011;73281;50.882;5.984;2023-12-14T08:53:12;2.90;;;0.80;;
83372;SDS011;73281;50.882;5.984;2023-12-14T08:55:38;1.80;;;1.13;;
83372;SDS011;73281;50.882;5.984;2023-12-14T08:58:03;1.83;;;0.90;;
83372;SDS011;73281;50.882;5.984;2023-12-14T09:00:28;2.63;;;1.23;;
83372;SDS011;73281;50.882;5.984;2023-12-14T09:02:54;2.20;;;1.37;;
83372;SDS011;73281;50.882;5.984;2023-12-14T09:05:19;1.83;;;0.93;;
83372;SDS011;73281;50.882;5.984;2023-12-14T09:07:46;4.95;;;1.17;;
83372;SDS011;73281;50.882;5.984;2023-12-14T09:10:11;4.10;;;1.13;;
83372;SDS011;73281;50.882;5.984;2023-12-14T09:12:37;2.10;;;1.20;;
83372;SDS011;73281;50.882;5.984;2023-12-14T09:15:02;3.40;;;1.03;;
83372;SDS011;73281;50.882;5.984;2023-12-14T09:17:29;4.68;;;1.10;;
83372;SDS011;73281;50.882;5.984;2023-12-14T09:19:59;2.88;;;1.02;;
83372;SDS011;73281;50.882;5.984;2023-12-14T09:22:30;3.65;;;1.08;;
83372;SDS011;73281;50.882;5.984;2023-12-14T09:24:56;3.30;;;0.90;;
83372;SDS011;73281;50.882;5.984;2023-12-14T09:27:21;1.93;;;0.93;;
83372;SDS011;73281;50.882;5.984;2023-12-14T09:29:50;2.93;;;1.17;;
83372;SDS011;73281;50.882;5.984;2023-12-14T09:32:21;3.00;;;1.10;;
83372;SDS011;73281;50.882;5.984;2023-12-14T09:34:46;3.30;;;1.50;;
83372;SDS011;73281;50.882;5.984;2023-12-14T09:37:11;2.43;;;1.20;;
83372;SDS011;73281;50.882;5.984;2023-12-14T09:39:39;2.08;;;1.20;;
83372;SDS011;73281;50.882;5.984;2023-12-14T09:42:05;2.90;;;1.27;;
83372;SDS011;73281;50.882;5.984;2023-12-14T09:44:32;3.72;;;1.30;;
83372;SDS011;73281;50.882;5.984;2023-12-14T09:46:58;4.38;;;1.45;;
83372;SDS011;73281;50.882;5.984;2023-12-14T09:49:25;3.30;;;1.40;;
83372;SDS011;73281;50.882;5.984;2023-12-14T09:51:54;2.77;;;1.33;;
83372;SDS011;73281;50.882;5.984;2023-12-14T09:54:23;3.95;;;1.40;;
83372;SDS011;73281;50.882;5.984;2023-12-14T09:56:49;3.90;;;1.60;;
83372;SDS011;73281;50.882;5.984;2023-12-14T09:59:15;3.43;;;1.13;;
83372;SDS011;73281;50.882;5.984;2023-12-14T10:01:41;3.55;;;1.17;;
83372;SDS011;73281;50.882;5.984;2023-12-14T10:04:08;3.75;;;1.23;;
83372;SDS011;73281;50.882;5.984;2023-12-14T10:06:35;4.87;;;1.73;;
83372;SDS011;73281;50.882;5.984;2023-12-14T10:09:02;2.50;;;1.10;;
83372;SDS011;73281;50.882;5.984;2023-12-14T10:11:28;2.90;;;1.50;;
83372;SDS011;73281;50.882;5.984;2023-12-14T10:13:53;3.83;;;1.27;;
83372;SDS011;73281;50.882;5.984;2023-12-14T10:16:29;5.03;;;1.97;;
83372;SDS011;73281;50.882;5.984;2023-12-14T10:18:55;6.40;;;1.52;;
83372;SDS011;73281;50.882;5.984;2023-12-14T10:21:22;3.03;;;1.50;;
83372;SDS011;73281;50.882;5.984;2023-12-14T10:23:48;4.53;;;1.40;;
83372;SDS011;73281;50.882;5.984;2023-12-14T10:26:14;2.20;;;1.23;;
83372;SDS011;73281;50.882;5.984;2023-12-14T10:28:40;3.17;;;1.27;;
83372;SDS011;73281;50.882;5.984;2023-12-14T10:31:05;2.93;;;1.33;;
83372;SDS011;73281;50.882;5.984;2023-12-14T10:33:31;3.90;;;1.70;;
83372;SDS011;73281;50.882;5.984;2023-12-14T10:35:56;3.70;;;1.50;;
83372;SDS011;73281;50.882;5.984;2023-12-14T10:38:22;2.47;;;1.20;;
83372;SDS011;73281;50.882;5.984;2023-12-14T10:40:49;3.38;;;1.42;;
83372;SDS011;73281;50.882;5.984;2023-12-14T10:43:16;2.33;;;1.17;;
83372;SDS011;73281;50.882;5.984;2023-12-14T10:45:42;3.67;;;1.40;;
83372;SDS011;73281;50.882;5.984;2023-12-14T10:48:12;3.17;;;1.50;;
83372;SDS011;73281;50.882;5.984;2023-12-14T10:50:38;5.28;;;1.40;;
83372;SDS011;73281;50.882;5.984;2023-12-14T10:53:07;3.50;;;1.23;;
83372;SDS011;73281;50.882;5.984;2023-12-14T10:55:36;2.38;;;1.23;;
83372;SDS011;73281;50.882;5.984;2023-12-14T10:58:05;2.30;;;1.30;;
83372;SDS011;73281;50.882;5.984;2023-12-14T11:00:33;2.77;;;1.23;;
83372;SDS011;73281;50.882;5.984;2023-12-14T11:02:59;3.03;;;1.40;;
83372;SDS011;73281;50.882;5.984;2023-12-14T11:05:27;2.33;;;1.05;;
83372;SDS011;73281;50.882;5.984;2023-12-14T11:07:59;2.33;;;1.17;;
83372;SDS011;73281;50.882;5.984;2023-12-14T11:10:35;3.17;;;1.37;;
83372;SDS011;73281;50.882;5.984;2023-12-14T11:13:03;3.03;;;1.42;;
83372;SDS011;73281;50.882;5.984;2023-12-14T11:15:33;2.05;;;1.05;;
83372;SDS011;73281;50.882;5.984;2023-12-14T11:18:41;1.92;;;1.35;;
83372;SDS011;73281;50.882;5.984;2023-12-14T11:20:59;2.20;;;1.30;;
83372;SDS011;73281;50.882;5.984;2023-12-14T11:25:51;3.08;;;1.30;;
83372;SDS011;73281;50.882;5.984;2023-12-14T11:28:18;2.10;;;1.00;;
83372;SDS011;73281;50.882;5.984;2023-12-14T11:30:44;3.22;;;1.30;;
83372;SDS011;73281;50.882;5.984;2023-12-14T11:33:14;3.08;;;1.50;;
83372;SDS011;73281;50.882;5.984;2023-12-14T11:35:41;2.92;;;1.27;;
83372;SDS011;73281;50.882;5.984;2023-12-14T11:38:07;3.20;;;1.30;;
83372;SDS011;73281;50.882;5.984;2023-12-14T11:40:38;2.40;;;1.23;;
83372;SDS011;73281;50.882;5.984;2023-12-14T11:43:04;4.13;;;1.20;;
83372;SDS011;73281;50.882;5.984;2023-12-14T11:45:36;2.08;;;1.13;;
83372;SDS011;73281;50.882;5.984;2023-12-14T11:48:03;1.85;;;1.10;;
83372;SDS011;73281;50.882;5.984;2023-12-14T11:50:31;2.45;;;1.08;;
83372;SDS011;73281;50.882;5.984;2023-12-14T11:52:57;2.30;;;1.07;;
83372;SDS011;73281;50.882;5.984;2023-12-14T11:55:22;2.88;;;1.27;;
83372;SDS011;73281;50.882;5.984;2023-12-14T11:57:48;3.33;;;1.10;;
83372;SDS011;73281;50.882;5.984;2023-12-14T12:00:14;1.92;;;1.25;;
83372;SDS011;73281;50.882;5.984;2023-12-14T12:02:40;1.53;;;1.00;;
83372;SDS011;73281;50.882;5.984;2023-12-14T12:05:06;1.98;;;1.20;;
83372;SDS011;73281;50.882;5.984;2023-12-14T12:07:32;3.37;;;1.20;;
83372;SDS011;73281;50.882;5.984;2023-12-14T12:09:58;4.93;;;1.80;;
83372;SDS011;73281;50.882;5.984;2023-12-14T12:12:24;1.80;;;0.82;;
83372;SDS011;73281;50.882;5.984;2023-12-14T12:14:49;4.13;;;1.40;;
83372;SDS011;73281;50.882;5.984;2023-12-14T12:17:17;2.90;;;1.30;;
83372;SDS011;73281;50.882;5.984;2023-12-14T12:19:44;4.28;;;1.20;;
83372;SDS011;73281;50.882;5.984;2023-12-14T12:22:10;10.18;;;1.80;;
83372;SDS011;73281;50.882;5.984;2023-12-14T12:24:36;3.47;;;1.30;;
83372;SDS011;73281;50.882;5.984;2023-12-14T12:27:02;5.38;;;1.42;;
83372;SDS011;73281;50.882;5.984;2023-12-14T12:29:29;6.65;;;1.35;;
83372;SDS011;73281;50.882;5.984;2023-12-14T12:31:54;5.57;;;1.30;;
83372;SDS011;73281;50.882;5.984;2023-12-14T12:34:20;2.05;;;1.27;;
83372;SDS011;73281;50.882;5.984;2023-12-14T12:36:45;5.73;;;1.30;;
83372;SDS011;73281;50.882;5.984;2023-12-14T12:39:11;3.03;;;1.30;;
83372;SDS011;73281;50.882;5.984;2023-12-14T12:41:37;4.30;;;1.33;;
83372;SDS011;73281;50.882;5.984;2023-12-14T12:44:03;3.33;;;1.30;;
83372;SDS011;73281;50.882;5.984;2023-12-14T12:46:37;2.05;;;1.10;;
83372;SDS011;73281;50.882;5.984;2023-12-14T12:49:03;3.10;;;1.30;;
83372;SDS011;73281;50.882;5.984;2023-12-14T12:51:30;2.07;;;0.97;;
83372;SDS011;73281;50.882;5.984;2023-12-14T12:53:57;6.47;;;0.93;;
83372;SDS011;73281;50.882;5.984;2023-12-14T12:56:23;4.68;;;1.00;;
83372;SDS011;73281;50.882;5.984;2023-12-14T12:58:50;3.80;;;1.20;;
83372;SDS011;73281;50.882;5.984;2023-12-14T13:01:17;4.43;;;1.40;;
83372;SDS011;73281;50.882;5.984;2023-12-14T13:03:42;6.80;;;1.50;;
83372;SDS011;73281;50.882;5.984;2023-12-14T13:06:08;2.47;;;1.27;;
83372;SDS011;73281;50.882;5.984;2023-12-14T13:08:33;2.77;;;1.53;;
83372;SDS011;73281;50.882;5.984;2023-12-14T13:10:58;4.93;;;1.77;;
83372;SDS011;73281;50.882;5.984;2023-12-14T13:13:24;4.23;;;1.70;;
83372;SDS011;73281;50.882;5.984;2023-12-14T13:15:50;4.28;;;1.98;;
83372;SDS011;73281;50.882;5.984;2023-12-14T13:18:16;7.93;;;2.40;;
83372;SDS011;73281;50.882;5.984;2023-12-14T13:20:41;4.10;;;1.90;;
83372;SDS011;73281;50.882;5.984;2023-12-14T13:23:07;3.60;;;2.17;;
83372;SDS011;73281;50.882;5.984;2023-12-14T13:25:32;5.30;;;2.30;;
83372;SDS011;73281;50.882;5.984;2023-12-14T13:27:58;3.83;;;2.55;;
83372;SDS011;73281;50.882;5.984;2023-12-14T13:30:24;5.28;;;2.30;;
83372;SDS011;73281;50.882;5.984;2023-12-14T13:32:50;3.47;;;2.17;;
83372;SDS011;73281;50.882;5.984;2023-12-14T13:35:15;4.10;;;2.50;;
83372;SDS011;73281;50.882;5.984;2023-12-14T13:37:40;5.43;;;2.40;;
83372;SDS011;73281;50.882;5.984;2023-12-14T13:40:06;6.83;;;2.50;;
83372;SDS011;73281;50.882;5.984;2023-12-14T13:42:32;4.20;;;2.30;;
83372;SDS011;73281;50.882;5.984;2023-12-14T13:44:57;2.87;;;2.10;;
83372;SDS011;73281;50.882;5.984;2023-12-14T13:47:23;5.00;;;2.23;;
83372;SDS011;73281;50.882;5.984;2023-12-14T13:49:48;4.23;;;2.37;;
83372;SDS011;73281;50.882;5.984;2023-12-14T13:52:13;7.03;;;2.85;;
83372;SDS011;73281;50.882;5.984;2023-12-14T13:54:39;5.33;;;2.57;;
83372;SDS011;73281;50.882;5.984;2023-12-14T13:57:04;3.93;;;2.47;;
83372;SDS011;73281;50.882;5.984;2023-12-14T13:59:30;9.03;;;2.63;;
83372;SDS011;73281;50.882;5.984;2023-12-14T14:01:55;4.65;;;2.30;;
83372;SDS011;73281;50.882;5.984;2023-12-14T14:04:20;4.67;;;2.30;;
83372;SDS011;73281;50.882;5.984;2023-12-14T14:06:46;3.97;;;2.40;;
83372;SDS011;73281;50.882;5.984;2023-12-14T14:09:11;5.37;;;2.50;;
83372;SDS011;73281;50.882;5.984;2023-12-14T14:11:37;5.55;;;2.33;;
83372;SDS011;73281;50.882;5.984;2023-12-14T14:14:02;4.30;;;2.07;;
83372;SDS011;73281;50.882;5.984;2023-12-14T14:16:28;4.38;;;2.22;;
83372;SDS011;73281;50.882;5.984;2023-12-14T14:18:54;8.98;;;2.20;;
83372;SDS011;73281;50.882;5.984;2023-12-14T14:21:20;5.53;;;2.60;;
83372;SDS011;73281;50.882;5.984;2023-12-14T14:23:45;14.87;;;4.40;;
83372;SDS011;73281;50.882;5.984;2023-12-14T14:26:11;23.23;;;3.07;;
83372;SDS011;73281;50.882;5.984;2023-12-14T14:28:36;10.23;;;2.28;;
83372;SDS011;73281;50.882;5.984;2023-12-14T14:31:01;18.07;;;3.10;;
83372;SDS011;73281;50.882;5.984;2023-12-14T14:33:27;16.27;;;2.50;;
83372;SDS011;73281;50.882;5.984;2023-12-14T14:35:52;8.37;;;2.30;;
83372;SDS011;73281;50.882;5.984;2023-12-14T14:38:18;8.97;;;2.73;;
83372;SDS011;73281;50.882;5.984;2023-12-14T14:40:44;22.03;;;2.97;;
83372;SDS011;73281;50.882;5.984;2023-12-14T14:43:10;9.88;;;2.33;;